sensor_id;sensor_type;location;lat;lon;timestamp;temperature;humidity
11855;DHT22;5987;53.140;8.904;2022-07-17T00:02:19;13.10;99.90
11855;DHT22;5987;53.140;8.904;2022-07-17T00:05:24;13.10;99.90
11855;DHT22;5987;53.140;8.904;2022-07-17T00:08:28;13.10;99.90
11855;DHT22;5987;53.140;8.904;2022-07-17T00:11:34;13.20;99.90
11855;DHT22;5987;53.140;8.904;2022-07-17T00:14:37;13.10;99.90
11855;DHT22;5987;53.140;8.904;2022-07-17T00:17:42;13.10;99.90
11855;DHT22;5987;53.140;8.904;2022-07-17T00:20:47;13.10;99.90
11855;DHT22;5987;53.140;8.904;2022-07-17T00:23:51;13.10;99.90
11855;DHT22;5987;53.140;8.904;2022-07-17T00:26:55;13.10;99.90
11855;DHT22;5987;53.140;8.904;2022-07-17T00:29:58;13.00;99.90
11855;DHT22;5987;53.140;8.904;2022-07-17T00:33:02;12.90;99.90
11855;DHT22;5987;53.140;8.904;2022-07-17T00:36:07;12.70;99.90
11855;DHT22;5987;53.140;8.904;2022-07-17T00:39:11;12.80;99.90
11855;DHT22;5987;53.140;8.904;2022-07-17T00:42:16;12.80;99.90
11855;DHT22;5987;53.140;8.904;2022-07-17T00:45:20;12.70;99.90
11855;DHT22;5987;53.140;8.904;2022-07-17T00:48:27;12.70;99.90
11855;DHT22;5987;53.140;8.904;2022-07-17T00:51:33;12.60;99.90
11855;DHT22;5987;53.140;8.904;2022-07-17T00:54:38;12.60;99.90
11855;DHT22;5987;53.140;8.904;2022-07-17T00:57:45;12.40;99.90
11855;DHT22;5987;53.140;8.904;2022-07-17T01:00:52;12.40;99.90
11855;DHT22;5987;53.140;8.904;2022-07-17T01:03:58;12.30;99.90
11855;DHT22;5987;53.140;8.904;2022-07-17T01:07:04;12.20;99.90
11855;DHT22;5987;53.140;8.904;2022-07-17T01:10:09;12.30;99.90
11855;DHT22;5987;53.140;8.904;2022-07-17T01:13:13;12.20;99.90
11855;DHT22;5987;53.140;8.904;2022-07-17T01:16:18;12.20;99.90
11855;DHT22;5987;53.140;8.904;2022-07-17T01:19:23;12.10;99.90
11855;DHT22;5987;53.140;8.904;2022-07-17T01:22:28;12.00;99.90
11855;DHT22;5987;53.140;8.904;2022-07-17T01:25:32;12.10;99.90
11855;DHT22;5987;53.140;8.904;2022-07-17T01:28:36;12.10;99.90
11855;DHT22;5987;53.140;8.904;2022-07-17T01:31:40;12.00;99.90
11855;DHT22;5987;53.140;8.904;2022-07-17T01:34:44;12.00;99.90
11855;DHT22;5987;53.140;8.904;2022-07-17T01:37:50;12.10;99.90
11855;DHT22;5987;53.140;8.904;2022-07-17T01:40:54;12.10;99.90
11855;DHT22;5987;53.140;8.904;2022-07-17T01:43:58;12.00;99.90
11855;DHT22;5987;53.140;8.904;2022-07-17T01:47:03;12.00;99.90
11855;DHT22;5987;53.140;8.904;2022-07-17T01:50:08;11.90;99.90
11855;DHT22;5987;53.140;8.904;2022-07-17T01:53:13;11.80;99.90
11855;DHT22;5987;53.140;8.904;2022-07-17T01:56:17;11.80;99.90
11855;DHT22;5987;53.140;8.904;2022-07-17T01:59:21;11.90;99.90
11855;DHT22;5987;53.140;8.904;2022-07-17T02:02:26;11.80;99.90
11855;DHT22;5987;53.140;8.904;2022-07-17T02:05:29;11.80;99.90
11855;DHT22;5987;53.140;8.904;2022-07-17T02:08:34;11.70;99.90
11855;DHT22;5987;53.140;8.904;2022-07-17T02:11:38;11.70;99.90
11855;DHT22;5987;53.140;8.904;2022-07-17T02:14:42;11.70;99.90
11855;DHT22;5987;53.140;8.904;2022-07-17T02:17:45;11.70;99.90
11855;DHT22;5987;53.140;8.904;2022-07-17T02:20:49;11.70;99.90
11855;DHT22;5987;53.140;8.904;2022-07-17T02:23:54;11.70;99.90
11855;DHT22;5987;53.140;8.904;2022-07-17T02:26:58;11.60;99.90
11855;DHT22;5987;53.140;8.904;2022-07-17T02:30:02;11.60;99.90
11855;DHT22;5987;53.140;8.904;2022-07-17T02:33:07;11.60;99.90
11855;DHT22;5987;53.140;8.904;2022-07-17T02:36:10;11.60;99.90
11855;DHT22;5987;53.140;8.904;2022-07-17T02:39:16;11.70;99.90
11855;DHT22;5987;53.140;8.904;2022-07-17T02:42:20;11.60;99.90
11855;DHT22;5987;53.140;8.904;2022-07-17T02:45:24;11.60;99.90
11855;DHT22;5987;53.140;8.904;2022-07-17T02:48:28;11.50;99.90
11855;DHT22;5987;53.140;8.904;2022-07-17T02:51:32;11.60;99.90
11855;DHT22;5987;53.140;8.904;2022-07-17T02:54:37;11.50;99.90
11855;DHT22;5987;53.140;8.904;2022-07-17T02:57:40;11.50;99.90
11855;DHT22;5987;53.140;8.904;2022-07-17T03:00:44;11.50;99.90
11855;DHT22;5987;53.140;8.904;2022-07-17T03:03:48;11.40;99.90
11855;DHT22;5987;53.140;8.904;2022-07-17T03:06:51;11.50;99.90
11855;DHT22;5987;53.140;8.904;2022-07-17T03:09:56;11.50;99.90
11855;DHT22;5987;53.140;8.904;2022-07-17T03:13:00;11.50;99.90
11855;DHT22;5987;53.140;8.904;2022-07-17T03:16:04;11.50;99.90
11855;DHT22;5987;53.140;8.904;2022-07-17T03:19:08;11.40;99.90
11855;DHT22;5987;53.140;8.904;2022-07-17T03:22:12;11.40;99.90
11855;DHT22;5987;53.140;8.904;2022-07-17T03:25:17;11.40;99.90
11855;DHT22;5987;53.140;8.904;2022-07-17T03:28:21;11.40;99.90
11855;DHT22;5987;53.140;8.904;2022-07-17T03:31:25;11.30;99.90
11855;DHT22;5987;53.140;8.904;2022-07-17T03:34:29;11.30;99.90
11855;DHT22;5987;53.140;8.904;2022-07-17T03:37:32;11.20;99.90
11855;DHT22;5987;53.140;8.904;2022-07-17T03:40:40;11.20;99.90
11855;DHT22;5987;53.140;8.904;2022-07-17T03:43:44;11.20;99.90
11855;DHT22;5987;53.140;8.904;2022-07-17T03:46:47;11.20;99.90
11855;DHT22;5987;53.140;8.904;2022-07-17T03:49:51;11.40;99.90
11855;DHT22;5987;53.140;8.904;2022-07-17T03:52:55;11.40;99.90
11855;DHT22;5987;53.140;8.904;2022-07-17T03:56:00;11.40;99.90
11855;DHT22;5987;53.140;8.904;2022-07-17T03:59:04;11.50;99.90
11855;DHT22;5987;53.140;8.904;2022-07-17T04:02:08;11.60;99.90
11855;DHT22;5987;53.140;8.904;2022-07-17T04:05:11;11.70;99.90
11855;DHT22;5987;53.140;8.904;2022-07-17T04:08:15;11.80;99.90
11855;DHT22;5987;53.140;8.904;2022-07-17T04:11:21;11.90;99.90
11855;DHT22;5987;53.140;8.904;2022-07-17T04:14:25;11.80;99.90
11855;DHT22;5987;53.140;8.904;2022-07-17T04:17:29;11.70;99.90
11855;DHT22;5987;53.140;8.904;2022-07-17T04:20:33;11.80;99.90
11855;DHT22;5987;53.140;8.904;2022-07-17T04:23:37;11.80;99.90
11855;DHT22;5987;53.140;8.904;2022-07-17T04:26:42;11.80;99.90
11855;DHT22;5987;53.140;8.904;2022-07-17T04:29:45;11.80;99.90
11855;DHT22;5987;53.140;8.904;2022-07-17T04:32:49;12.10;99.90
11855;DHT22;5987;53.140;8.904;2022-07-17T04:35:53;12.10;99.90
11855;DHT22;5987;53.140;8.904;2022-07-17T04:38:56;12.30;99.90
11855;DHT22;5987;53.140;8.904;2022-07-17T04:42:03;12.40;99.90
11855;DHT22;5987;53.140;8.904;2022-07-17T04:45:08;12.60;99.90
11855;DHT22;5987;53.140;8.904;2022-07-17T04:48:12;12.70;99.90
11855;DHT22;5987;53.140;8.904;2022-07-17T04:51:16;12.60;99.90
11855;DHT22;5987;53.140;8.904;2022-07-17T04:54:19;12.70;99.90
11855;DHT22;5987;53.140;8.904;2022-07-17T04:57:25;12.70;99.90
11855;DHT22;5987;53.140;8.904;2022-07-17T05:00:29;12.80;99.90
11855;DHT22;5987;53.140;8.904;2022-07-17T05:03:33;12.80;99.90
11855;DHT22;5987;53.140;8.904;2022-07-17T05:06:36;12.80;99.90
11855;DHT22;5987;53.140;8.904;2022-07-17T05:09:40;12.90;99.90
11855;DHT22;5987;53.140;8.904;2022-07-17T05:12:45;12.90;99.90
11855;DHT22;5987;53.140;8.904;2022-07-17T05:15:49;13.00;99.90
11855;DHT22;5987;53.140;8.904;2022-07-17T05:18:53;13.10;99.90
11855;DHT22;5987;53.140;8.904;2022-07-17T05:21:58;13.20;99.90
11855;DHT22;5987;53.140;8.904;2022-07-17T05:25:02;13.10;99.90
11855;DHT22;5987;53.140;8.904;2022-07-17T05:28:07;13.30;99.90
11855;DHT22;5987;53.140;8.904;2022-07-17T05:31:11;13.50;99.90
11855;DHT22;5987;53.140;8.904;2022-07-17T05:34:15;13.50;99.90
11855;DHT22;5987;53.140;8.904;2022-07-17T05:37:18;13.50;99.90
11855;DHT22;5987;53.140;8.904;2022-07-17T05:40:22;13.70;99.90
11855;DHT22;5987;53.140;8.904;2022-07-17T05:43:29;13.90;99.90
11855;DHT22;5987;53.140;8.904;2022-07-17T05:46:33;14.00;99.90
11855;DHT22;5987;53.140;8.904;2022-07-17T05:49:37;14.10;99.90
11855;DHT22;5987;53.140;8.904;2022-07-17T05:52:41;14.30;99.90
11855;DHT22;5987;53.140;8.904;2022-07-17T05:55:45;14.40;99.90
11855;DHT22;5987;53.140;8.904;2022-07-17T05:58:50;14.50;99.90
11855;DHT22;5987;53.140;8.904;2022-07-17T06:01:54;14.70;99.90
11855;DHT22;5987;53.140;8.904;2022-07-17T06:04:58;15.00;99.90
11855;DHT22;5987;53.140;8.904;2022-07-17T06:08:02;15.30;99.90
11855;DHT22;5987;53.140;8.904;2022-07-17T06:11:07;15.70;99.90
11855;DHT22;5987;53.140;8.904;2022-07-17T06:14:12;16.20;99.90
11855;DHT22;5987;53.140;8.904;2022-07-17T06:17:16;17.00;99.90
11855;DHT22;5987;53.140;8.904;2022-07-17T06:20:19;17.50;99.90
11855;DHT22;5987;53.140;8.904;2022-07-17T06:23:24;17.90;99.90
11855;DHT22;5987;53.140;8.904;2022-07-17T06:26:28;18.10;99.90
11855;DHT22;5987;53.140;8.904;2022-07-17T06:29:33;18.00;99.90
11855;DHT22;5987;53.140;8.904;2022-07-17T06:32:36;17.70;99.90
11855;DHT22;5987;53.140;8.904;2022-07-17T06:35:40;17.60;99.90
11855;DHT22;5987;53.140;8.904;2022-07-17T06:38:46;17.70;99.90
11855;DHT22;5987;53.140;8.904;2022-07-17T06:41:50;17.80;99.90
11855;DHT22;5987;53.140;8.904;2022-07-17T06:44:55;18.20;99.90
11855;DHT22;5987;53.140;8.904;2022-07-17T06:47:59;18.50;99.90
11855;DHT22;5987;53.140;8.904;2022-07-17T06:51:03;18.30;99.90
11855;DHT22;5987;53.140;8.904;2022-07-17T06:54:07;18.30;99.90
11855;DHT22;5987;53.140;8.904;2022-07-17T06:57:12;18.60;99.90
11855;DHT22;5987;53.140;8.904;2022-07-17T07:00:17;18.80;99.90
11855;DHT22;5987;53.140;8.904;2022-07-17T07:03:21;19.10;99.90
11855;DHT22;5987;53.140;8.904;2022-07-17T07:06:25;19.00;99.90
11855;DHT22;5987;53.140;8.904;2022-07-17T07:09:29;18.90;99.90
11855;DHT22;5987;53.140;8.904;2022-07-17T07:12:33;19.00;99.90
11855;DHT22;5987;53.140;8.904;2022-07-17T07:15:41;19.20;99.90
11855;DHT22;5987;53.140;8.904;2022-07-17T07:18:45;19.10;99.90
11855;DHT22;5987;53.140;8.904;2022-07-17T07:21:49;19.20;99.90
11855;DHT22;5987;53.140;8.904;2022-07-17T07:24:52;19.60;99.90
11855;DHT22;5987;53.140;8.904;2022-07-17T07:27:56;20.00;99.90
11855;DHT22;5987;53.140;8.904;2022-07-17T07:31:02;20.20;99.90
11855;DHT22;5987;53.140;8.904;2022-07-17T07:34:06;20.20;99.90
11855;DHT22;5987;53.140;8.904;2022-07-17T07:37:09;20.40;99.90
11855;DHT22;5987;53.140;8.904;2022-07-17T07:40:13;20.20;99.90
11855;DHT22;5987;53.140;8.904;2022-07-17T07:43:17;19.90;99.90
11855;DHT22;5987;53.140;8.904;2022-07-17T07:46:22;19.70;99.90
11855;DHT22;5987;53.140;8.904;2022-07-17T07:49:26;19.90;99.90
11855;DHT22;5987;53.140;8.904;2022-07-17T07:52:30;20.40;99.90
11855;DHT22;5987;53.140;8.904;2022-07-17T07:55:34;20.20;99.70
11855;DHT22;5987;53.140;8.904;2022-07-17T07:58:37;20.10;99.90
11855;DHT22;5987;53.140;8.904;2022-07-17T08:01:43;20.10;99.90
11855;DHT22;5987;53.140;8.904;2022-07-17T08:04:47;20.00;99.90
11855;DHT22;5987;53.140;8.904;2022-07-17T08:07:51;19.90;99.90
11855;DHT22;5987;53.140;8.904;2022-07-17T08:10:54;19.80;99.90
11855;DHT22;5987;53.140;8.904;2022-07-17T08:13:58;19.80;99.90
11855;DHT22;5987;53.140;8.904;2022-07-17T08:17:11;20.20;99.90
11855;DHT22;5987;53.140;8.904;2022-07-17T08:20:16;21.00;99.90
11855;DHT22;5987;53.140;8.904;2022-07-17T08:23:20;21.20;99.10
11855;DHT22;5987;53.140;8.904;2022-07-17T08:26:24;20.70;99.90
11855;DHT22;5987;53.140;8.904;2022-07-17T08:29:28;20.70;99.90
11855;DHT22;5987;53.140;8.904;2022-07-17T08:32:53;21.20;99.40
11855;DHT22;5987;53.140;8.904;2022-07-17T08:35:57;20.70;98.20
11855;DHT22;5987;53.140;8.904;2022-07-17T08:39:00;19.80;99.90
11855;DHT22;5987;53.140;8.904;2022-07-17T08:42:05;19.70;99.90
11855;DHT22;5987;53.140;8.904;2022-07-17T08:45:10;20.30;99.90
11855;DHT22;5987;53.140;8.904;2022-07-17T08:48:17;21.00;99.40
11855;DHT22;5987;53.140;8.904;2022-07-17T08:51:22;21.00;97.20
11855;DHT22;5987;53.140;8.904;2022-07-17T08:54:28;21.10;96.30
11855;DHT22;5987;53.140;8.904;2022-07-17T08:57:32;21.70;96.10
11855;DHT22;5987;53.140;8.904;2022-07-17T09:00:46;22.20;94.30
11855;DHT22;5987;53.140;8.904;2022-07-17T09:03:58;21.50;95.40
11855;DHT22;5987;53.140;8.904;2022-07-17T09:07:08;20.30;97.20
11855;DHT22;5987;53.140;8.904;2022-07-17T09:10:12;20.90;98.90
11855;DHT22;5987;53.140;8.904;2022-07-17T09:13:18;21.10;96.10
11855;DHT22;5987;53.140;8.904;2022-07-17T09:16:23;20.80;96.30
11855;DHT22;5987;53.140;8.904;2022-07-17T09:19:31;21.10;96.30
11855;DHT22;5987;53.140;8.904;2022-07-17T09:22:37;21.70;94.40
11855;DHT22;5987;53.140;8.904;2022-07-17T09:25:42;22.00;93.80
11855;DHT22;5987;53.140;8.904;2022-07-17T09:28:47;22.30;92.80
11855;DHT22;5987;53.140;8.904;2022-07-17T09:31:51;22.90;90.30
11855;DHT22;5987;53.140;8.904;2022-07-17T09:34:58;23.00;87.70
11855;DHT22;5987;53.140;8.904;2022-07-17T09:38:03;23.10;87.10
11855;DHT22;5987;53.140;8.904;2022-07-17T09:41:09;23.40;86.00
11855;DHT22;5987;53.140;8.904;2022-07-17T09:44:15;23.90;85.00
11855;DHT22;5987;53.140;8.904;2022-07-17T09:47:19;23.80;84.10
11855;DHT22;5987;53.140;8.904;2022-07-17T09:50:25;23.90;83.80
11855;DHT22;5987;53.140;8.904;2022-07-17T09:53:34;24.00;81.00
11855;DHT22;5987;53.140;8.904;2022-07-17T09:56:40;24.00;80.10
11855;DHT22;5987;53.140;8.904;2022-07-17T09:59:45;23.60;79.40
11855;DHT22;5987;53.140;8.904;2022-07-17T10:02:52;23.40;79.20
11855;DHT22;5987;53.140;8.904;2022-07-17T10:05:58;23.00;81.70
11855;DHT22;5987;53.140;8.904;2022-07-17T10:09:03;22.80;82.40
11855;DHT22;5987;53.140;8.904;2022-07-17T10:12:08;22.60;83.30
11855;DHT22;5987;53.140;8.904;2022-07-17T10:15:12;22.60;84.60
11855;DHT22;5987;53.140;8.904;2022-07-17T10:18:16;22.80;86.50
11855;DHT22;5987;53.140;8.904;2022-07-17T10:21:23;22.90;85.30
11855;DHT22;5987;53.140;8.904;2022-07-17T10:24:29;22.60;84.20
11855;DHT22;5987;53.140;8.904;2022-07-17T10:27:36;22.30;86.30
11855;DHT22;5987;53.140;8.904;2022-07-17T10:30:42;22.40;84.20
11855;DHT22;5987;53.140;8.904;2022-07-17T10:33:55;22.30;85.30
11855;DHT22;5987;53.140;8.904;2022-07-17T10:37:01;22.40;83.80
11855;DHT22;5987;53.140;8.904;2022-07-17T10:40:10;22.20;82.60
11855;DHT22;5987;53.140;8.904;2022-07-17T10:43:14;22.40;84.20
11855;DHT22;5987;53.140;8.904;2022-07-17T10:46:18;22.40;82.80
11855;DHT22;5987;53.140;8.904;2022-07-17T10:49:22;22.30;84.50
11855;DHT22;5987;53.140;8.904;2022-07-17T10:52:27;22.40;83.80
11855;DHT22;5987;53.140;8.904;2022-07-17T10:55:32;22.50;83.00
11855;DHT22;5987;53.140;8.904;2022-07-17T10:58:38;22.50;83.00
11855;DHT22;5987;53.140;8.904;2022-07-17T11:01:43;22.60;81.20
11855;DHT22;5987;53.140;8.904;2022-07-17T11:04:47;22.60;82.70
11855;DHT22;5987;53.140;8.904;2022-07-17T11:07:54;22.50;81.50
11855;DHT22;5987;53.140;8.904;2022-07-17T11:11:01;22.50;81.80
11855;DHT22;5987;53.140;8.904;2022-07-17T11:14:13;22.60;81.80
11855;DHT22;5987;53.140;8.904;2022-07-17T11:17:20;22.60;81.00
11855;DHT22;5987;53.140;8.904;2022-07-17T11:20:25;22.80;81.40
11855;DHT22;5987;53.140;8.904;2022-07-17T11:23:32;22.80;80.80
11855;DHT22;5987;53.140;8.904;2022-07-17T11:26:37;22.60;79.80
11855;DHT22;5987;53.140;8.904;2022-07-17T11:29:41;22.30;81.70
11855;DHT22;5987;53.140;8.904;2022-07-17T11:32:45;22.10;83.20
11855;DHT22;5987;53.140;8.904;2022-07-17T11:35:49;22.20;82.50
11855;DHT22;5987;53.140;8.904;2022-07-17T11:38:56;22.20;81.90
11855;DHT22;5987;53.140;8.904;2022-07-17T11:42:01;22.30;81.30
11855;DHT22;5987;53.140;8.904;2022-07-17T11:45:06;22.30;81.10
11855;DHT22;5987;53.140;8.904;2022-07-17T11:48:12;22.40;82.20
11855;DHT22;5987;53.140;8.904;2022-07-17T11:51:16;22.40;80.00
11855;DHT22;5987;53.140;8.904;2022-07-17T11:54:22;22.60;81.10
11855;DHT22;5987;53.140;8.904;2022-07-17T11:57:26;22.60;82.40
11855;DHT22;5987;53.140;8.904;2022-07-17T12:00:31;22.80;82.50
11855;DHT22;5987;53.140;8.904;2022-07-17T12:03:35;23.10;82.00
11855;DHT22;5987;53.140;8.904;2022-07-17T12:06:40;23.20;80.50
11855;DHT22;5987;53.140;8.904;2022-07-17T12:09:46;23.00;81.20
11855;DHT22;5987;53.140;8.904;2022-07-17T12:12:55;22.70;79.90
11855;DHT22;5987;53.140;8.904;2022-07-17T12:16:00;22.50;80.20
11855;DHT22;5987;53.140;8.904;2022-07-17T12:19:07;22.50;83.20
11855;DHT22;5987;53.140;8.904;2022-07-17T12:22:12;22.30;82.90
11855;DHT22;5987;53.140;8.904;2022-07-17T12:25:25;22.30;82.90
11855;DHT22;5987;53.140;8.904;2022-07-17T12:28:30;22.20;82.00
11855;DHT22;5987;53.140;8.904;2022-07-17T12:31:34;22.30;82.50
11855;DHT22;5987;53.140;8.904;2022-07-17T12:34:40;22.60;83.60
11855;DHT22;5987;53.140;8.904;2022-07-17T12:37:47;22.70;81.90
11855;DHT22;5987;53.140;8.904;2022-07-17T12:40:52;22.80;80.70
11855;DHT22;5987;53.140;8.904;2022-07-17T12:43:57;22.70;80.40
11855;DHT22;5987;53.140;8.904;2022-07-17T12:47:01;22.50;81.40
11855;DHT22;5987;53.140;8.904;2022-07-17T12:50:06;22.60;79.50
11855;DHT22;5987;53.140;8.904;2022-07-17T12:53:11;22.60;81.30
11855;DHT22;5987;53.140;8.904;2022-07-17T12:56:17;22.70;81.30
11855;DHT22;5987;53.140;8.904;2022-07-17T12:59:20;22.70;82.90
11855;DHT22;5987;53.140;8.904;2022-07-17T13:02:24;22.70;81.30
11855;DHT22;5987;53.140;8.904;2022-07-17T13:05:28;22.60;81.00
11855;DHT22;5987;53.140;8.904;2022-07-17T13:08:32;22.60;81.30
11855;DHT22;5987;53.140;8.904;2022-07-17T13:11:39;22.80;80.70
11855;DHT22;5987;53.140;8.904;2022-07-17T13:14:44;23.10;80.00
11855;DHT22;5987;53.140;8.904;2022-07-17T13:17:47;23.20;79.30
11855;DHT22;5987;53.140;8.904;2022-07-17T13:20:51;23.30;78.90
11855;DHT22;5987;53.140;8.904;2022-07-17T13:24:03;23.30;77.90
11855;DHT22;5987;53.140;8.904;2022-07-17T13:27:09;23.30;79.40
11855;DHT22;5987;53.140;8.904;2022-07-17T13:30:13;23.30;78.40
11855;DHT22;5987;53.140;8.904;2022-07-17T13:33:17;23.00;79.20
11855;DHT22;5987;53.140;8.904;2022-07-17T13:36:20;23.30;79.50
11855;DHT22;5987;53.140;8.904;2022-07-17T13:39:24;23.50;77.20
11855;DHT22;5987;53.140;8.904;2022-07-17T13:42:29;23.50;79.00
11855;DHT22;5987;53.140;8.904;2022-07-17T13:45:43;23.70;77.00
11855;DHT22;5987;53.140;8.904;2022-07-17T13:48:47;23.40;76.50
11855;DHT22;5987;53.140;8.904;2022-07-17T13:51:51;23.60;77.80
11855;DHT22;5987;53.140;8.904;2022-07-17T13:54:55;23.70;76.40
11855;DHT22;5987;53.140;8.904;2022-07-17T13:58:20;23.70;75.20
11855;DHT22;5987;53.140;8.904;2022-07-17T14:01:23;23.80;75.60
11855;DHT22;5987;53.140;8.904;2022-07-17T14:04:28;23.60;75.30
11855;DHT22;5987;53.140;8.904;2022-07-17T14:07:31;23.60;77.90
11855;DHT22;5987;53.140;8.904;2022-07-17T14:10:35;23.60;78.00
11855;DHT22;5987;53.140;8.904;2022-07-17T14:13:40;23.60;77.50
11855;DHT22;5987;53.140;8.904;2022-07-17T14:16:51;23.60;76.20
11855;DHT22;5987;53.140;8.904;2022-07-17T14:19:55;23.40;77.20
11855;DHT22;5987;53.140;8.904;2022-07-17T14:22:59;23.40;78.60
11855;DHT22;5987;53.140;8.904;2022-07-17T14:26:03;23.30;79.50
11855;DHT22;5987;53.140;8.904;2022-07-17T14:29:08;23.20;78.40
11855;DHT22;5987;53.140;8.904;2022-07-17T14:32:12;23.30;80.00
11855;DHT22;5987;53.140;8.904;2022-07-17T14:35:16;23.40;79.80
11855;DHT22;5987;53.140;8.904;2022-07-17T14:38:20;23.40;79.70
11855;DHT22;5987;53.140;8.904;2022-07-17T14:41:24;23.60;79.10
11855;DHT22;5987;53.140;8.904;2022-07-17T14:44:29;23.60;78.30
11855;DHT22;5987;53.140;8.904;2022-07-17T14:47:34;23.70;78.50
11855;DHT22;5987;53.140;8.904;2022-07-17T14:50:37;23.70;78.20
11855;DHT22;5987;53.140;8.904;2022-07-17T14:53:42;23.80;78.30
11855;DHT22;5987;53.140;8.904;2022-07-17T14:56:46;23.90;77.50
11855;DHT22;5987;53.140;8.904;2022-07-17T14:59:51;23.70;78.80
11855;DHT22;5987;53.140;8.904;2022-07-17T15:02:55;23.80;78.70
11855;DHT22;5987;53.140;8.904;2022-07-17T15:05:59;24.00;78.30
11855;DHT22;5987;53.140;8.904;2022-07-17T15:09:03;24.00;78.20
11855;DHT22;5987;53.140;8.904;2022-07-17T15:12:06;24.10;78.50
11855;DHT22;5987;53.140;8.904;2022-07-17T15:15:11;24.10;77.70
11855;DHT22;5987;53.140;8.904;2022-07-17T15:18:15;24.00;77.10
11855;DHT22;5987;53.140;8.904;2022-07-17T15:21:19;24.10;78.60
11855;DHT22;5987;53.140;8.904;2022-07-17T15:24:43;24.10;78.20
11855;DHT22;5987;53.140;8.904;2022-07-17T15:27:47;24.20;78.10
11855;DHT22;5987;53.140;8.904;2022-07-17T15:30:52;24.10;78.40
11855;DHT22;5987;53.140;8.904;2022-07-17T15:33:56;24.10;78.30
11855;DHT22;5987;53.140;8.904;2022-07-17T15:36:59;24.00;78.80
11855;DHT22;5987;53.140;8.904;2022-07-17T15:40:04;24.20;78.80
11855;DHT22;5987;53.140;8.904;2022-07-17T15:43:09;24.00;78.00
11855;DHT22;5987;53.140;8.904;2022-07-17T15:46:14;23.80;77.70
11855;DHT22;5987;53.140;8.904;2022-07-17T15:49:17;23.80;79.30
11855;DHT22;5987;53.140;8.904;2022-07-17T15:52:22;24.00;77.20
11855;DHT22;5987;53.140;8.904;2022-07-17T15:55:25;23.70;76.90
11855;DHT22;5987;53.140;8.904;2022-07-17T15:58:29;23.50;77.00
11855;DHT22;5987;53.140;8.904;2022-07-17T16:01:34;23.50;77.70
11855;DHT22;5987;53.140;8.904;2022-07-17T16:04:38;23.50;79.30
11855;DHT22;5987;53.140;8.904;2022-07-17T16:07:42;23.70;78.60
11855;DHT22;5987;53.140;8.904;2022-07-17T16:10:45;23.90;77.90
11855;DHT22;5987;53.140;8.904;2022-07-17T16:13:49;23.80;78.90
11855;DHT22;5987;53.140;8.904;2022-07-17T16:16:54;23.70;79.20
11855;DHT22;5987;53.140;8.904;2022-07-17T16:19:58;23.70;81.00
11855;DHT22;5987;53.140;8.904;2022-07-17T16:23:04;23.70;79.50
11855;DHT22;5987;53.140;8.904;2022-07-17T16:26:08;23.80;79.60
11855;DHT22;5987;53.140;8.904;2022-07-17T16:29:11;23.70;79.10
11855;DHT22;5987;53.140;8.904;2022-07-17T16:32:17;23.50;80.40
11855;DHT22;5987;53.140;8.904;2022-07-17T16:35:21;23.70;81.20
11855;DHT22;5987;53.140;8.904;2022-07-17T16:38:24;23.80;80.40
11855;DHT22;5987;53.140;8.904;2022-07-17T16:41:28;23.80;79.70
11855;DHT22;5987;53.140;8.904;2022-07-17T16:44:32;23.70;78.20
11855;DHT22;5987;53.140;8.904;2022-07-17T16:47:37;23.50;78.40
11855;DHT22;5987;53.140;8.904;2022-07-17T16:50:40;23.50;79.70
11855;DHT22;5987;53.140;8.904;2022-07-17T16:53:46;23.60;79.20
11855;DHT22;5987;53.140;8.904;2022-07-17T16:56:50;23.50;79.30
11855;DHT22;5987;53.140;8.904;2022-07-17T16:59:54;23.40;79.20
11855;DHT22;5987;53.140;8.904;2022-07-17T17:02:59;23.40;80.20
11855;DHT22;5987;53.140;8.904;2022-07-17T17:06:03;23.40;80.30
11855;DHT22;5987;53.140;8.904;2022-07-17T17:09:07;23.30;80.70
11855;DHT22;5987;53.140;8.904;2022-07-17T17:12:11;23.30;80.50
11855;DHT22;5987;53.140;8.904;2022-07-17T17:15:26;23.30;81.20
11855;DHT22;5987;53.140;8.904;2022-07-17T17:18:32;23.30;81.90
11855;DHT22;5987;53.140;8.904;2022-07-17T17:21:36;23.20;81.90
11855;DHT22;5987;53.140;8.904;2022-07-17T17:24:39;23.20;81.20
11855;DHT22;5987;53.140;8.904;2022-07-17T17:27:43;23.00;81.50
11855;DHT22;5987;53.140;8.904;2022-07-17T17:30:47;23.00;82.30
11855;DHT22;5987;53.140;8.904;2022-07-17T17:33:53;22.90;82.60
11855;DHT22;5987;53.140;8.904;2022-07-17T17:36:56;22.90;82.60
11855;DHT22;5987;53.140;8.904;2022-07-17T17:40:00;22.90;82.80
11855;DHT22;5987;53.140;8.904;2022-07-17T17:43:04;23.00;82.80
11855;DHT22;5987;53.140;8.904;2022-07-17T17:46:08;23.00;82.10
11855;DHT22;5987;53.140;8.904;2022-07-17T17:49:13;23.00;82.40
11855;DHT22;5987;53.140;8.904;2022-07-17T17:52:16;22.90;83.20
11855;DHT22;5987;53.140;8.904;2022-07-17T17:55:21;22.90;82.90
11855;DHT22;5987;53.140;8.904;2022-07-17T17:58:25;22.90;82.60
11855;DHT22;5987;53.140;8.904;2022-07-17T18:01:30;22.80;82.50
11855;DHT22;5987;53.140;8.904;2022-07-17T18:04:36;22.70;82.70
11855;DHT22;5987;53.140;8.904;2022-07-17T18:07:39;22.60;83.20
11855;DHT22;5987;53.140;8.904;2022-07-17T18:10:43;22.40;83.50
11855;DHT22;5987;53.140;8.904;2022-07-17T18:13:47;22.30;84.20
11855;DHT22;5987;53.140;8.904;2022-07-17T18:16:58;22.30;84.40
11855;DHT22;5987;53.140;8.904;2022-07-17T18:20:04;22.30;85.40
11855;DHT22;5987;53.140;8.904;2022-07-17T18:23:09;22.20;85.50
11855;DHT22;5987;53.140;8.904;2022-07-17T18:26:13;22.20;85.70
11855;DHT22;5987;53.140;8.904;2022-07-17T18:29:17;22.20;85.70
11855;DHT22;5987;53.140;8.904;2022-07-17T18:32:24;22.20;87.40
11855;DHT22;5987;53.140;8.904;2022-07-17T18:35:30;22.20;87.60
11855;DHT22;5987;53.140;8.904;2022-07-17T18:38:41;22.20;87.60
11855;DHT22;5987;53.140;8.904;2022-07-17T18:41:45;22.20;87.90
11855;DHT22;5987;53.140;8.904;2022-07-17T18:44:49;22.20;88.30
11855;DHT22;5987;53.140;8.904;2022-07-17T18:47:53;22.10;89.10
11855;DHT22;5987;53.140;8.904;2022-07-17T18:51:01;22.10;88.90
11855;DHT22;5987;53.140;8.904;2022-07-17T18:54:05;22.10;89.30
11855;DHT22;5987;53.140;8.904;2022-07-17T18:57:08;22.10;89.90
11855;DHT22;5987;53.140;8.904;2022-07-17T19:00:13;22.10;90.00
11855;DHT22;5987;53.140;8.904;2022-07-17T19:03:18;22.00;90.10
11855;DHT22;5987;53.140;8.904;2022-07-17T19:06:24;22.00;90.30
11855;DHT22;5987;53.140;8.904;2022-07-17T19:09:28;21.90;90.50
11855;DHT22;5987;53.140;8.904;2022-07-17T19:12:32;21.80;90.60
11855;DHT22;5987;53.140;8.904;2022-07-17T19:15:36;21.70;90.80
11855;DHT22;5987;53.140;8.904;2022-07-17T19:18:40;21.60;91.00
11855;DHT22;5987;53.140;8.904;2022-07-17T19:21:45;21.50;91.30
11855;DHT22;5987;53.140;8.904;2022-07-17T19:24:49;21.40;91.50
11855;DHT22;5987;53.140;8.904;2022-07-17T19:27:53;21.30;91.90
11855;DHT22;5987;53.140;8.904;2022-07-17T19:30:57;21.10;92.50
11855;DHT22;5987;53.140;8.904;2022-07-17T19:34:01;20.80;93.20
11855;DHT22;5987;53.140;8.904;2022-07-17T19:37:06;20.70;93.90
11855;DHT22;5987;53.140;8.904;2022-07-17T19:40:10;20.50;94.70
11855;DHT22;5987;53.140;8.904;2022-07-17T19:43:14;20.40;95.90
11855;DHT22;5987;53.140;8.904;2022-07-17T19:46:18;20.40;96.40